Flight Track Log - Related Links

Times and Time Zones

All times are in EDT time to prevent confusion due to time zone crossing. See the N66BS flight status page for this flight to view local times or setup timezone preferences in your user account.

Time Position Orientation Groundspeed Altitude Reporting Facility
EDT Latitude Longitude Course Direction KTS MPH feet Rate Location/Type
Mon 05:56:09 PM 30.1319 -97.7231 228° Southwest 134 154 5,700  Level Houston Center
Mon 05:56:43 PM 30.1278 -97.7528 261° West 159 183 6,900 1,915 Climbing Houston Center
Mon 05:57:43 PM 30.1131 -97.7958 248° West 150 173 8,700 1,800 Climbing Houston Center
Mon 05:58:13 PM 30.1047 -97.8158 244° Southwest 151 174 9,600 1,714 Climbing Houston Center
Mon 05:59:14 PM 30.0847 -97.8592 242° Southwest 152 175 11,300 1,610 Climbing Houston Center
Mon 06:00:00 PM 30.2739 -97.6428 221° Southwest  Level FlightAware Approximate
Mon 06:00:16 PM 30.0667 -97.9092 247° West 157 181 12,900  Level Houston Center
Mon 06:01:00 PM 30.2305 -97.6918 228° Southwest  Level FlightAware Approximate
Mon 06:01:18 PM 30.0450 -97.9600 244° Southwest 166 191 14,200  Level Houston Center
Mon 06:02:20 PM 30.0111 -97.9986 225° Southwest 170 196 15,500 1,161 Climbing Houston Center
Mon 06:03:22 PM 29.9767 -98.0431 228° Southwest 173 199 16,600 1,016 Climbing Houston Center
Mon 06:04:24 PM 29.9433 -98.0853 228° Southwest 177 204 17,600 968 Climbing Houston Center
Mon 06:05:26 PM 29.9086 -98.1289 227° Southwest 184 212 18,600 1,065 Climbing Houston Center
Mon 06:06:28 PM 29.8714 -98.1758 228° Southwest 183 211 19,800 968 Climbing Houston Center
Mon 06:07:30 PM 29.8367 -98.2189 227° Southwest 184 212 20,600 823 Climbing Houston Center
Mon 06:08:32 PM 29.7989 -98.2672 228° Southwest 189 217 21,500 774 Climbing Houston Center
Mon 06:09:34 PM 29.7631 -98.3128 228° Southwest 193 222 22,200 677 Climbing Houston Center
Mon 06:10:36 PM 29.7236 -98.3628 228° Southwest 196 226 22,900 629 Climbing Houston Center
Mon 06:11:38 PM 29.6864 -98.4100 228° Southwest 199 229 23,500 532 Climbing Houston Center
Mon 06:12:40 PM 29.6478 -98.4603 229° Southwest 204 235 24,000 242 Climbing Houston Center
Mon 06:13:42 PM 29.5908 -98.4958 209° Southwest 236 272 24,000  Level Houston Center
Mon 06:14:43 PM 29.5289 -98.5192 198° South 234 269 24,000  Level Houston Center
Mon 06:15:46 PM 29.4564 -98.5522 202° Southwest 249 287 24,000  Level Houston Center
Mon 06:16:47 PM 29.3897 -98.5875 205° Southwest 246 283 24,000  Level Houston Center
Mon 06:17:49 PM 29.3261 -98.6167 202° Southwest 247 284 24,000  Level Houston Center
Mon 06:18:51 PM 29.2628 -98.6475 203° Southwest 247 284 24,000  Level Houston Center
Mon 06:19:53 PM 29.1950 -98.6811 203° Southwest 246 283 24,000  Level Houston Center
Mon 06:20:55 PM 29.1322 -98.7111 203° Southwest 245 282 24,000  Level Houston Center
Mon 06:21:57 PM 29.0644 -98.7439 203° Southwest 246 283 24,000  Level Houston Center
Mon 06:22:58 PM 29.0019 -98.7739 203° Southwest 244 281 24,000  Level Houston Center
Mon 06:24:00 PM 28.9394 -98.8036 203° Southwest 243 280 24,000  Level Houston Center
Mon 06:25:02 PM 28.8719 -98.8367 203° Southwest 245 282 24,000  Level Houston Center
Mon 06:26:04 PM 28.8094 -98.8672 203° Southwest 245 282 24,000  Level Houston Center
Mon 06:27:06 PM 28.7431 -98.9022 205° Southwest 244 281 24,000  Level Houston Center
Mon 06:28:08 PM 28.6800 -98.9344 204° Southwest 249 287 24,000  Level Houston Center
Mon 06:29:10 PM 28.6242 -98.9617 203° Southwest 249 287 24,000  Level Houston Center
Mon 06:30:12 PM 28.5511 -99.0000 205° Southwest 242 278 24,000  Level Houston Center
Mon 06:31:14 PM 28.4892 -99.0325 205° Southwest 243 280 24,000  Level Houston Center
Mon 06:32:16 PM 28.4275 -99.0644 204° Southwest 244 281 24,000  Level Houston Center
Mon 06:33:17 PM 28.3656 -99.0961 204° Southwest 243 280 24,000  Level Houston Center
Mon 06:34:19 PM 28.3028 -99.1275 204° Southwest 245 282 24,000  Level Houston Center
Mon 06:35:21 PM 28.2411 -99.1589 204° Southwest 244 281 24,000  Level Houston Center
Mon 06:36:23 PM 28.1672 -99.1975 205° Southwest 243 280 24,000  Level Houston Center
Mon 06:37:25 PM 28.1050 -99.2286 204° Southwest 244 281 24,000  Level Houston Center
Mon 06:38:27 PM 28.0442 -99.2603 205° Southwest 242 278 24,000  Level Houston Center
Mon 06:39:29 PM 27.9831 -99.2906 204° Southwest 241 277 24,000  Level Houston Center
Mon 06:40:31 PM 27.9219 -99.3225 205° Southwest 241 277 24,000  Level Houston Center
Mon 06:41:33 PM 27.8619 -99.3528 204° Southwest 237 273 24,000  Level Houston Center
Mon 06:42:35 PM 27.7886 -99.3897 204° Southwest 239 275 24,000  Level Houston Center
Mon 06:43:36 PM 27.7289 -99.4206 205° Southwest 238 274 24,000  Level Houston Center
Mon 06:44:38 PM 27.6686 -99.4503 204° Southwest 237 273 24,000  Level Houston Center
Mon 06:45:40 PM 27.6086 -99.4814 205° Southwest 239 275 24,000  Level Houston Center
Mon 06:46:42 PM 27.5492 -99.5117 204° Southwest 235 270 24,000  Level Houston Center
Mon 06:47:44 PM 27.4883 -99.5408 203° Southwest 238 274 24,000  Level Houston Center
Mon 06:49:00 PM 27.4159 -99.5669 197° South  Level FlightAware Approximate
Mon 06:56:00 PM 27.0132 -99.7012 197° South  Level FlightAware Approximate
Mon 06:57:00 PM 26.9556 -99.7202 196° South  Level FlightAware Approximate
Mon 06:58:00 PM 26.8979 -99.7384 196° South  Level FlightAware Approximate
Mon 06:59:00 PM 26.8401 -99.7567 196° South  Level FlightAware Approximate
Mon 07:00:00 PM 26.7824 -99.7749 196° South  Level FlightAware Approximate
Mon 07:01:00 PM 26.7246 -99.7932 196° South  Level FlightAware Approximate
Mon 07:02:00 PM 26.6669 -99.8114 196° South  Level FlightAware Approximate
Mon 07:03:00 PM 26.6091 -99.8295 196° South  Level FlightAware Approximate
Mon 07:04:00 PM 26.5513 -99.8476 196° South  Level FlightAware Approximate
Mon 07:05:00 PM 26.4935 -99.8656 196° South  Level FlightAware Approximate
Mon 07:06:00 PM 26.4357 -99.8837 196° South  Level FlightAware Approximate
Mon 07:07:00 PM 26.3779 -99.9016 195° South  Level FlightAware Approximate
Mon 07:08:00 PM 26.3200 -99.9190 195° South  Level FlightAware Approximate
Mon 07:09:00 PM 26.2620 -99.9364 195° South  Level FlightAware Approximate
Mon 07:10:00 PM 26.2042 -99.9542 197° South  Level FlightAware Approximate
Mon 07:11:00 PM 26.1467 -99.9734 197° South  Level FlightAware Approximate
Mon 07:12:00 PM 26.0892 -99.9925 197° South  Level FlightAware Approximate
Mon 07:13:00 PM 26.0317 -100.0117 197° South  Level FlightAware Approximate
Mon 07:14:00 PM 25.9739 -100.0295 195° South  Level FlightAware Approximate
Mon 07:15:00 PM 25.9160 -100.0469 195° South  Level FlightAware Approximate
Mon 07:16:00 PM 25.8581 -100.0642 195° South  Level FlightAware Approximate
Mon 07:17:00 PM 25.8014 -100.0861 200° South  Level FlightAware Approximate
Mon 07:18:00 PM 25.7815 -100.1197 310° West  Level FlightAware Approximate
Mon 07:19:00 PM 25.8194 -100.1713 304° West  Level FlightAware Approximate
Mon 07:20:00 PM 25.8527 -100.2267 304° West  Level FlightAware Approximate
Mon 07:21:00 PM 25.8656 -100.2372 304° West  Level Estimated
Mon 07:22:00 PM 25.8656 -100.2372 304° West  Level Estimated
Mon 07:23:00 PM 25.8656 -100.2372 304° West  Level Estimated
Mon 07:24:00 PM 25.8656 -100.2372 304° West  Level Estimated
Mon 07:25:00 PM 25.8656 -100.2372 304° West  Level Estimated
Mon 07:26:00 PM 25.8656 -100.2372 304° West  Level Estimated
Mon 07:27:00 PM 25.8656 -100.2372 304° West  Level Estimated
Mon 07:28:00 PM 25.8656 -100.2372 304° West  Level Estimated
Mon 07:29:00 PM 25.8656 -100.2372 304° West  Level Estimated
Mon 07:30:00 PM 25.8656 -100.2372 304° West  Level Estimated
Mon 07:31:00 PM 25.8656 -100.2372 304° West  Level Estimated
Mon 07:32:00 PM 25.8656 -100.2372 304° West  Level Estimated
Mon 07:33:00 PM 25.8656 -100.2372 304° West  Level Estimated
Mon 07:34:00 PM 25.8656 -100.2372 304° West  Level Estimated
Mon 07:35:00 PM 25.8656 -100.2372 304° West  Level Estimated
Mon 07:36:00 PM 25.8656 -100.2372 304° West  Level Estimated

Login

Don't have an account? Register now (free) for customized features, flight alerts, and more!